Airport View

Enter AWOS ICAO identifier for current METAR.

ex. KFNL

KOTM 262053Z AUTO 33017KT 10SM OVC049 01/M07 A3021 RMK AO2 PK WND 35029/2009 SLP239 60000 T00061072 56013

26 Feb 2020 21:36

Frequency: 124.175

Phone: 641-684-9164

Other Area AWOS: KOOA - KFFL - KPEA - KOXV

TAF AMD KOTM 261726Z 2617/2718 34017KT P6SM SCT030 TEMPO 2618/2620 BKN028 FM262200 33013KT P6SM FEW035 FM270200 32007KT P6SM FEW150 FM270700 VRB04KT P6SM FEW025 SCT120